createdAt,value
2019-02-19T00:00:16.934Z,0.00
2019-02-19T00:01:16.915Z,0.00
2019-02-19T00:02:16.928Z,0.00
2019-02-19T00:03:16.892Z,0.00
2019-02-19T00:04:16.892Z,0.00
2019-02-19T00:05:16.910Z,0.00
2019-02-19T00:06:16.867Z,0.00
2019-02-19T00:07:16.874Z,0.00
2019-02-19T00:08:16.841Z,0.00
2019-02-19T00:09:16.826Z,0.00
2019-02-19T00:10:16.820Z,0.00
2019-02-19T00:11:16.805Z,0.00
2019-02-19T00:12:16.817Z,0.00
2019-02-19T00:13:16.795Z,0.00
2019-02-19T00:14:16.776Z,0.00
2019-02-19T00:15:16.761Z,0.00
2019-02-19T00:16:16.786Z,0.00
2019-02-19T00:17:16.767Z,0.00
2019-02-19T00:18:16.729Z,0.00
2019-02-19T00:19:16.731Z,0.00
2019-02-19T00:20:16.708Z,0.00
2019-02-19T00:21:16.698Z,0.00
2019-02-19T00:22:16.714Z,0.00
2019-02-19T00:23:16.674Z,0.00
2019-02-19T00:24:16.694Z,0.00
2019-02-19T00:25:16.652Z,0.00
2019-02-19T00:26:16.642Z,0.00
2019-02-19T00:27:16.653Z,0.00
2019-02-19T00:28:16.619Z,0.00
2019-02-19T00:29:16.613Z,0.00
2019-02-19T00:30:16.612Z,0.00
2019-02-19T00:31:16.589Z,0.00
2019-02-19T00:32:16.605Z,0.00
2019-02-19T00:33:16.566Z,0.00
2019-02-19T00:34:16.553Z,0.00
2019-02-19T00:35:16.543Z,0.00
2019-02-19T00:36:16.565Z,0.00
2019-02-19T00:37:16.543Z,0.00
2019-02-19T00:38:16.511Z,0.00
2019-02-19T00:39:16.501Z,0.00
2019-02-19T00:40:16.495Z,0.00
2019-02-19T00:41:16.478Z,0.00
2019-02-19T00:42:16.502Z,0.00
2019-02-19T00:43:16.456Z,0.00
2019-02-19T00:44:16.469Z,0.00
2019-02-19T00:45:17.021Z,0.00
2019-02-19T00:46:16.425Z,0.00
2019-02-19T00:47:16.437Z,0.00
2019-02-19T00:48:16.437Z,0.00
2019-02-19T00:49:16.390Z,0.00
2019-02-19T00:50:16.379Z,0.00
2019-02-19T00:51:16.370Z,0.00
2019-02-19T00:52:16.381Z,0.00
2019-02-19T00:53:16.349Z,0.00
2019-02-19T00:54:16.349Z,0.00
2019-02-19T00:55:16.328Z,0.00
2019-02-19T00:56:16.322Z,0.00
2019-02-19T00:57:16.329Z,0.00
2019-02-19T00:58:16.295Z,0.00
2019-02-19T00:59:16.286Z,0.00
2019-02-19T01:00:16.285Z,0.00
2019-02-19T01:01:16.261Z,0.00
2019-02-19T01:02:16.274Z,0.00
2019-02-19T01:03:16.237Z,0.00
2019-02-19T01:04:16.235Z,0.00
2019-02-19T01:05:16.223Z,0.00
2019-02-19T01:06:16.205Z,0.00
2019-02-19T01:07:16.216Z,0.00
2019-02-19T01:08:16.190Z,0.00
2019-02-19T01:09:16.175Z,0.00
2019-02-19T01:10:16.162Z,0.00
2019-02-19T01:11:16.153Z,0.00
2019-02-19T01:12:16.170Z,0.00
2019-02-19T01:13:16.163Z,0.00
2019-02-19T01:14:16.133Z,0.00
2019-02-19T01:15:16.126Z,0.00
2019-02-19T01:16:16.097Z,0.00
2019-02-19T01:17:16.109Z,0.00
2019-02-19T01:18:16.094Z,0.00
2019-02-19T01:19:16.065Z,0.00
2019-02-19T01:20:16.094Z,0.00
2019-02-19T01:21:16.059Z,0.00
2019-02-19T01:22:16.060Z,0.00
2019-02-19T01:23:16.022Z,0.00
2019-02-19T01:24:16.008Z,0.00
2019-02-19T01:25:15.998Z,0.00
2019-02-19T01:26:16.008Z,0.00
2019-02-19T01:27:16.000Z,0.00
2019-02-19T01:28:15.966Z,0.00
2019-02-19T01:29:15.963Z,0.00
2019-02-19T01:30:15.943Z,0.00
2019-02-19T01:31:15.933Z,0.00
2019-02-19T01:32:15.962Z,0.00
2019-02-19T01:33:15.914Z,0.00
2019-02-19T01:34:15.910Z,0.00
2019-02-19T01:35:15.894Z,0.00
2019-02-19T01:36:15.882Z,0.00
2019-02-19T01:37:15.876Z,0.00
2019-02-19T01:38:15.883Z,0.00
2019-02-19T01:39:15.859Z,0.00
2019-02-19T01:40:15.835Z,0.00
2019-02-19T01:41:15.830Z,0.00
2019-02-19T01:42:15.815Z,0.00
2019-02-19T01:43:15.828Z,0.00
2019-02-19T01:44:15.792Z,0.00
2019-02-19T01:45:15.781Z,0.00
2019-02-19T01:46:15.795Z,0.00
2019-02-19T01:47:15.758Z,0.00
2019-02-19T01:48:15.770Z,0.00
2019-02-19T01:49:15.738Z,0.00
2019-02-19T01:50:15.727Z,0.00
2019-02-19T01:51:15.716Z,0.00
2019-02-19T01:52:15.731Z,0.00
2019-02-19T01:53:15.718Z,0.00
2019-02-19T01:54:15.682Z,0.00
2019-02-19T01:55:15.672Z,0.00
2019-02-19T01:56:15.661Z,0.00
2019-02-19T01:57:15.650Z,0.00
2019-02-19T01:58:15.675Z,0.00
2019-02-19T01:59:15.628Z,0.00
2019-02-19T02:00:15.620Z,0.00
2019-02-19T02:01:15.609Z,0.00
2019-02-19T02:02:15.596Z,0.00
2019-02-19T02:03:15.608Z,0.00
2019-02-19T02:04:15.602Z,0.00
2019-02-19T02:05:15.565Z,0.00
2019-02-19T02:06:15.556Z,0.00
2019-02-19T02:07:15.541Z,0.00
2019-02-19T02:08:15.553Z,0.00
2019-02-19T02:09:15.522Z,0.00
2019-02-19T02:10:15.526Z,0.00
2019-02-19T02:11:15.497Z,0.00
2019-02-19T02:12:15.489Z,0.00
2019-02-19T02:13:15.658Z,0.00
2019-02-19T02:14:15.474Z,0.00
2019-02-19T02:15:15.454Z,0.00
2019-02-19T02:16:15.463Z,0.00
2019-02-19T02:17:15.462Z,0.00
2019-02-19T02:18:15.421Z,0.00
2019-02-19T02:19:15.436Z,0.00
2019-02-19T02:20:15.398Z,0.00
2019-02-19T02:21:15.389Z,0.00
2019-02-19T02:22:15.377Z,0.00
2019-02-19T02:23:15.377Z,0.00
2019-02-19T02:24:15.378Z,0.00
2019-02-19T02:25:15.345Z,0.00
2019-02-19T02:26:15.339Z,0.00
2019-02-19T02:27:15.323Z,0.00
2019-02-19T02:28:15.316Z,0.00
2019-02-19T02:29:15.327Z,0.00
2019-02-19T02:30:15.315Z,0.00
2019-02-19T02:31:15.282Z,0.00
2019-02-19T02:32:15.269Z,0.00
2019-02-19T02:33:15.259Z,0.00
2019-02-19T02:34:15.270Z,0.00
2019-02-19T02:35:15.239Z,0.00
2019-02-19T02:36:15.258Z,0.00
2019-02-19T02:37:15.215Z,0.00
2019-02-19T02:38:15.204Z,0.00
2019-02-19T02:39:15.215Z,0.00
2019-02-19T02:40:15.200Z,0.00
2019-02-19T02:41:15.171Z,0.00
2019-02-19T02:42:15.165Z,0.00
2019-02-19T02:43:15.152Z,0.00
2019-02-19T02:44:15.159Z,0.00
2019-02-19T02:45:15.151Z,0.00
2019-02-19T02:46:15.117Z,0.00
2019-02-19T02:47:15.123Z,0.00
2019-02-19T02:48:15.100Z,0.00
2019-02-19T02:49:15.106Z,0.00
2019-02-19T02:50:15.073Z,0.00
2019-02-19T02:51:15.070Z,0.00
2019-02-19T02:52:15.074Z,0.00
2019-02-19T02:53:15.058Z,0.00
2019-02-19T02:54:15.066Z,0.00
2019-02-19T02:55:15.022Z,0.00
2019-02-19T02:56:15.008Z,0.00
2019-02-19T02:57:14.995Z,0.00
2019-02-19T02:58:14.985Z,0.00
2019-02-19T02:59:14.997Z,0.00
2019-02-19T03:00:14.994Z,0.00
2019-02-19T03:01:14.956Z,0.00
2019-02-19T03:02:14.947Z,0.00
2019-02-19T03:03:14.929Z,0.00
2019-02-19T03:04:14.944Z,0.00
2019-02-19T03:05:14.919Z,0.00
2019-02-19T03:06:14.947Z,0.00
2019-02-19T03:07:14.894Z,0.00
2019-02-19T03:08:14.879Z,0.00
2019-02-19T03:09:14.891Z,0.00
2019-02-19T03:10:14.857Z,0.00
2019-02-19T03:11:14.859Z,0.00
2019-02-19T03:12:14.832Z,0.00
2019-02-19T03:13:14.821Z,0.00
2019-02-19T03:14:14.812Z,0.00
2019-02-19T03:15:14.825Z,0.00
2019-02-19T03:16:14.789Z,0.00
2019-02-19T03:17:14.789Z,0.00
2019-02-19T03:18:14.769Z,0.00
2019-02-19T03:19:14.763Z,0.00
2019-02-19T03:20:14.767Z,0.00
2019-02-19T03:21:14.737Z,0.00
2019-02-19T03:22:14.723Z,0.00
2019-02-19T03:23:14.736Z,0.00
2019-02-19T03:24:14.705Z,0.00
2019-02-19T03:25:14.715Z,0.00
2019-02-19T03:26:14.681Z,0.00
2019-02-19T03:27:14.668Z,0.00
2019-02-19T03:28:14.656Z,0.00
2019-02-19T03:29:14.668Z,0.00
2019-02-19T03:30:14.662Z,0.00
2019-02-19T03:31:14.630Z,0.00
2019-02-19T03:32:14.615Z,0.00
2019-02-19T03:33:14.605Z,0.00
2019-02-19T03:34:14.595Z,0.00
2019-02-19T03:35:14.629Z,0.00
2019-02-19T03:36:14.575Z,0.00
2019-02-19T03:37:14.562Z,0.00
2019-02-19T03:38:14.551Z,0.00
2019-02-19T03:39:14.536Z,0.00
2019-02-19T03:40:14.554Z,0.00
2019-02-19T03:41:14.548Z,0.00
2019-02-19T03:42:14.503Z,0.00
2019-02-19T03:43:14.505Z,0.00
2019-02-19T03:44:14.489Z,0.00
2019-02-19T03:45:14.492Z,0.00
2019-02-19T03:46:14.458Z,0.00
2019-02-19T03:47:14.461Z,0.00
2019-02-19T03:48:14.436Z,0.00
2019-02-19T03:49:14.428Z,0.00
2019-02-19T03:50:14.439Z,0.00
2019-02-19T03:51:14.403Z,0.00
2019-02-19T03:52:14.391Z,0.00
2019-02-19T03:53:14.416Z,0.00
2019-02-19T03:54:14.450Z,0.00
2019-02-19T03:55:14.384Z,0.00
2019-02-19T03:56:14.347Z,0.00
2019-02-19T03:57:14.341Z,0.00
2019-02-19T03:58:14.324Z,0.00
2019-02-19T03:59:14.342Z,0.00
2019-02-19T04:00:14.323Z,0.00
2019-02-19T04:01:14.298Z,0.00
2019-02-19T04:02:14.281Z,0.00
2019-02-19T04:03:14.272Z,0.00
2019-02-19T04:04:14.258Z,0.00
2019-02-19T04:05:14.278Z,0.00
2019-02-19T04:06:14.262Z,0.00
2019-02-19T04:07:14.223Z,0.00
2019-02-19T04:08:14.220Z,0.00
2019-02-19T04:09:14.202Z,0.00
2019-02-19T04:10:14.191Z,0.00
2019-02-19T04:11:14.209Z,0.00
2019-02-19T04:12:14.190Z,0.00
2019-02-19T04:13:14.156Z,0.00
2019-02-19T04:14:14.147Z,0.00
2019-02-19T04:15:14.138Z,0.00
2019-02-19T04:16:20.993Z,0.00
2019-02-19T04:17:15.111Z,0.00
2019-02-19T04:18:14.140Z,0.00
2019-02-19T04:19:14.099Z,0.00
2019-02-19T04:20:14.080Z,0.00
2019-02-19T04:21:14.095Z,0.00
2019-02-19T04:22:14.057Z,0.00
2019-02-19T04:23:14.046Z,0.00
2019-02-19T04:24:14.055Z,0.00
2019-02-19T04:25:14.024Z,0.00
2019-02-19T04:26:14.178Z,0.00
2019-02-19T04:27:14.003Z,0.00
2019-02-19T04:28:13.992Z,0.00
2019-02-19T04:29:13.982Z,0.00
2019-02-19T04:30:14.023Z,0.00
2019-02-19T04:31:13.981Z,0.00
2019-02-19T04:32:13.949Z,0.00
2019-02-19T04:33:13.939Z,0.00
2019-02-19T04:34:13.928Z,0.00
2019-02-19T04:35:13.918Z,0.00
2019-02-19T04:36:13.926Z,0.00
2019-02-19T04:37:13.902Z,0.00
2019-02-19T04:38:13.903Z,0.00
2019-02-19T04:39:13.870Z,0.00
2019-02-19T04:40:13.859Z,0.00
2019-02-19T04:41:13.873Z,0.00
2019-02-19T04:42:13.836Z,0.00
2019-02-19T04:43:13.826Z,0.00
2019-02-19T04:44:13.830Z,0.00
2019-02-19T04:45:13.802Z,0.00
2019-02-19T04:46:13.863Z,0.00
2019-02-19T04:47:13.783Z,0.00
2019-02-19T04:48:13.773Z,0.00
2019-02-19T04:49:13.757Z,0.00
2019-02-19T04:50:13.779Z,0.00
2019-02-19T04:51:13.763Z,0.00
2019-02-19T04:52:13.732Z,0.00
2019-02-19T04:53:13.749Z,0.00
2019-02-19T04:54:13.705Z,0.00
2019-02-19T04:55:13.693Z,0.00
2019-02-19T04:56:13.720Z,0.00
2019-02-19T04:57:13.672Z,0.00
2019-02-19T04:58:13.658Z,0.00
2019-02-19T04:59:13.651Z,0.00
2019-02-19T05:00:13.638Z,0.00
2019-02-19T05:01:13.652Z,0.00
2019-02-19T05:02:13.630Z,0.00
2019-02-19T05:03:13.611Z,0.00
2019-02-19T05:04:13.591Z,0.00
2019-02-19T05:05:13.582Z,0.00
2019-02-19T05:06:13.601Z,0.00
2019-02-19T05:07:13.560Z,0.00
2019-02-19T05:08:13.558Z,0.00
2019-02-19T05:09:13.542Z,0.00
2019-02-19T05:10:13.541Z,0.00
2019-02-19T05:11:13.518Z,0.00
2019-02-19T05:12:13.532Z,0.00
2019-02-19T05:13:13.500Z,0.00
2019-02-19T05:14:13.498Z,0.00
2019-02-19T05:15:13.475Z,0.00
2019-02-19T05:16:13.461Z,0.00
2019-02-19T05:17:13.472Z,0.00
2019-02-19T05:18:13.442Z,0.00
2019-02-19T05:19:13.429Z,0.00
2019-02-19T05:20:13.439Z,0.00
2019-02-19T05:21:13.417Z,0.00
2019-02-19T05:22:13.427Z,0.00
2019-02-19T05:23:13.385Z,0.00
2019-02-19T05:24:13.371Z,0.00
2019-02-19T05:25:13.364Z,0.00
2019-02-19T05:26:13.377Z,0.00
2019-02-19T05:27:13.370Z,0.00
2019-02-19T05:28:13.333Z,0.00
2019-02-19T05:29:13.317Z,0.00
2019-02-19T05:30:13.306Z,0.00
2019-02-19T05:31:13.298Z,0.00
2019-02-19T05:32:13.330Z,0.00
2019-02-19T05:33:13.277Z,0.00
2019-02-19T05:34:13.267Z,0.00
2019-02-19T05:35:13.255Z,0.00
2019-02-19T05:36:13.240Z,0.00
2019-02-19T05:37:13.254Z,0.00
2019-02-19T05:38:13.225Z,0.00
2019-02-19T05:39:13.207Z,0.00
2019-02-19T05:40:13.201Z,0.00
2019-02-19T05:41:13.186Z,0.00
2019-02-19T05:42:13.197Z,0.00
2019-02-19T05:43:13.163Z,0.00
2019-02-19T05:44:13.175Z,0.00
2019-02-19T05:45:13.141Z,0.00
2019-02-19T05:46:13.130Z,0.00
2019-02-19T05:47:13.146Z,0.00
2019-02-19T05:48:13.108Z,0.00
2019-02-19T05:49:13.099Z,0.00
2019-02-19T05:50:13.111Z,0.00
2019-02-19T05:51:13.073Z,0.00
2019-02-19T05:52:13.087Z,0.00
2019-02-19T05:53:13.051Z,0.00
2019-02-19T05:54:13.040Z,0.00
2019-02-19T05:55:13.031Z,0.00
2019-02-19T05:56:13.029Z,0.00
2019-02-19T05:57:13.039Z,0.00
2019-02-19T05:58:13.014Z,0.00
2019-02-19T05:59:12.984Z,0.00
2019-02-19T06:00:12.976Z,0.00
2019-02-19T06:01:12.964Z,0.00
2019-02-19T06:02:12.961Z,0.00
2019-02-19T06:03:12.969Z,0.00
2019-02-19T06:04:12.937Z,0.00
2019-02-19T06:05:12.926Z,0.00
2019-02-19T06:06:12.907Z,0.00
2019-02-19T06:07:12.895Z,0.00
2019-02-19T06:08:12.920Z,0.00
2019-02-19T06:09:12.875Z,0.00
2019-02-19T06:10:12.878Z,4.00
2019-02-19T06:11:12.853Z,4.00
2019-02-19T06:12:12.840Z,4.00
2019-02-19T06:13:12.855Z,4.00
2019-02-19T06:14:12.826Z,0.00
2019-02-19T06:15:12.824Z,4.00
2019-02-19T06:16:12.812Z,4.00
2019-02-19T06:17:12.790Z,4.00
2019-02-19T06:18:12.794Z,4.00
2019-02-19T06:19:12.767Z,8.00
2019-02-19T06:20:12.752Z,4.00
2019-02-19T06:21:12.738Z,8.00
2019-02-19T06:22:12.736Z,8.00
2019-02-19T06:23:12.808Z,8.00
2019-02-19T06:24:12.707Z,8.00
2019-02-19T06:25:12.776Z,8.00
2019-02-19T06:26:12.707Z,8.00
2019-02-19T06:27:12.674Z,8.00
2019-02-19T06:28:12.698Z,8.00
2019-02-19T06:29:12.651Z,16.00
2019-02-19T06:30:12.641Z,20.00
2019-02-19T06:31:12.633Z,24.00
2019-02-19T06:32:12.616Z,28.00
2019-02-19T06:33:12.628Z,28.00
2019-02-19T06:34:14.269Z,28.00
2019-02-19T06:35:12.585Z,32.00
2019-02-19T06:36:12.571Z,32.00
2019-02-19T06:37:12.580Z,36.00
2019-02-19T06:38:12.571Z,40.00
2019-02-19T06:39:12.539Z,48.00
2019-02-19T06:40:12.543Z,60.00
2019-02-19T06:41:12.521Z,68.00
2019-02-19T06:42:12.514Z,80.00
2019-02-19T06:43:12.517Z,88.00
2019-02-19T06:44:12.485Z,100.00
2019-02-19T06:45:12.472Z,104.00
2019-02-19T06:46:12.467Z,116.00
2019-02-19T06:47:12.745Z,120.00
2019-02-19T06:48:12.454Z,120.00
2019-02-19T06:49:12.455Z,116.00
2019-02-19T06:50:12.421Z,112.00
2019-02-19T06:51:12.458Z,112.00
2019-02-19T06:52:12.398Z,116.00
2019-02-19T06:53:12.391Z,132.00
2019-02-19T06:54:12.398Z,156.00
2019-02-19T06:55:12.358Z,188.00
2019-02-19T06:56:12.350Z,216.00
2019-02-19T06:57:12.338Z,220.00
2019-02-19T06:58:12.332Z,220.00
2019-02-19T06:59:12.410Z,212.00
2019-02-19T07:00:12.306Z,200.00
2019-02-19T07:01:12.298Z,196.00
2019-02-19T07:02:12.283Z,224.00
2019-02-19T07:03:12.271Z,232.00
2019-02-19T07:04:12.308Z,256.00
2019-02-19T07:05:12.264Z,268.00
2019-02-19T07:06:12.246Z,272.00
2019-02-19T07:07:12.234Z,288.00
2019-02-19T07:08:12.219Z,304.00
2019-02-19T07:09:12.232Z,368.00
2019-02-19T07:10:12.198Z,444.00
2019-02-19T07:11:12.195Z,512.00
2019-02-19T07:12:12.172Z,572.00
2019-02-19T07:13:12.163Z,628.00
2019-02-19T07:14:12.182Z,676.00
2019-02-19T07:15:12.149Z,708.00
2019-02-19T07:16:12.131Z,736.00
2019-02-19T07:17:15.751Z,744.00
2019-02-19T07:18:12.109Z,748.00
2019-02-19T07:19:12.122Z,792.00
2019-02-19T07:20:12.082Z,820.00
2019-02-19T07:21:12.074Z,852.00
2019-02-19T07:22:12.066Z,892.00
2019-02-19T07:23:12.062Z,952.00
2019-02-19T07:24:12.060Z,1004.00
2019-02-19T07:25:12.028Z,1024.00
2019-02-19T07:26:12.178Z,1024.00
2019-02-19T07:27:12.008Z,996.00
2019-02-19T07:28:12.006Z,916.00
2019-02-19T07:29:12.023Z,824.00
2019-02-19T07:30:11.970Z,740.00
2019-02-19T07:31:11.966Z,744.00
2019-02-19T07:32:11.973Z,816.00
2019-02-19T07:33:11.950Z,828.00
2019-02-19T07:34:11.967Z,840.00
2019-02-19T07:35:11.975Z,836.00
2019-02-19T07:36:11.935Z,796.00
2019-02-19T07:37:11.896Z,756.00
2019-02-19T07:38:11.890Z,756.00
2019-02-19T07:39:11.921Z,796.00
2019-02-19T07:40:11.862Z,852.00
2019-02-19T07:41:11.860Z,860.00
2019-02-19T07:42:12.001Z,912.00
2019-02-19T07:43:11.828Z,988.00
2019-02-19T07:44:11.815Z,1144.00
2019-02-19T07:45:11.844Z,1360.00
2019-02-19T07:46:11.795Z,1528.00
2019-02-19T07:47:11.782Z,1624.00
2019-02-19T07:48:11.772Z,1720.00
2019-02-19T07:49:11.759Z,1828.00
2019-02-19T07:50:11.786Z,1996.00
2019-02-19T07:51:11.746Z,2148.00
2019-02-19T07:52:11.760Z,2272.00
2019-02-19T07:53:11.732Z,2352.00
2019-02-19T07:54:11.709Z,2364.00
2019-02-19T07:55:11.819Z,2344.00
2019-02-19T07:56:13.023Z,2316.00
2019-02-19T07:57:13.432Z,2332.00
2019-02-19T07:58:11.761Z,2344.00
2019-02-19T07:59:11.928Z,2396.00
2019-02-19T08:00:11.745Z,2480.00
2019-02-19T08:01:11.686Z,2592.00
2019-02-19T08:02:11.644Z,2760.00
2019-02-19T08:03:11.610Z,2916.00
2019-02-19T08:04:11.641Z,3000.00
2019-02-19T08:05:11.715Z,3028.00
2019-02-19T08:06:11.625Z,3064.00
2019-02-19T08:07:11.580Z,3124.00
2019-02-19T08:08:11.558Z,3200.00
2019-02-19T08:09:11.676Z,3268.00
2019-02-19T08:10:11.567Z,3304.00
2019-02-19T08:11:11.575Z,3352.00
2019-02-19T08:12:11.683Z,3356.00
2019-02-19T08:13:11.502Z,3324.00
2019-02-19T08:14:11.490Z,3328.00
2019-02-19T08:15:11.652Z,3356.00
2019-02-19T08:16:11.671Z,3396.00
2019-02-19T08:17:11.488Z,3440.00
2019-02-19T08:18:11.458Z,3408.00
2019-02-19T08:19:11.612Z,3296.00
2019-02-19T08:20:16.003Z,3200.00
2019-02-19T08:21:11.561Z,3124.00
2019-02-19T08:22:11.398Z,3052.00
2019-02-19T08:23:11.391Z,2956.00
2019-02-19T08:24:11.498Z,2824.00
2019-02-19T08:25:11.391Z,2712.00
2019-02-19T08:26:11.367Z,2676.00
2019-02-19T08:27:11.366Z,2676.00
2019-02-19T08:28:11.345Z,2696.00
2019-02-19T08:29:13.817Z,2800.00
2019-02-19T08:30:11.386Z,2920.00
2019-02-19T08:31:11.308Z,3008.00
2019-02-19T08:32:11.287Z,3056.00
2019-02-19T08:33:11.272Z,3056.00
2019-02-19T08:34:11.289Z,3028.00
2019-02-19T08:35:11.281Z,2996.00
2019-02-19T08:36:11.247Z,2988.00
2019-02-19T08:37:11.249Z,3064.00
2019-02-19T08:38:11.236Z,3256.00
2019-02-19T08:39:11.243Z,3620.00
2019-02-19T08:40:11.207Z,3924.00
2019-02-19T08:41:11.214Z,3968.00
2019-02-19T08:42:11.174Z,3812.00
2019-02-19T08:43:11.220Z,3656.00
2019-02-19T08:44:11.163Z,3552.00
2019-02-19T08:45:11.147Z,3504.00
2019-02-19T08:46:11.165Z,3440.00
2019-02-19T08:47:12.931Z,3508.00
2019-02-19T08:48:11.112Z,3688.00
2019-02-19T08:49:11.101Z,3796.00
2019-02-19T08:50:11.090Z,3780.00
2019-02-19T08:51:11.116Z,3752.00
2019-02-19T08:52:11.129Z,3704.00
2019-02-19T08:53:11.069Z,3676.00
2019-02-19T08:54:11.052Z,3716.00
2019-02-19T08:55:11.032Z,3860.00
2019-02-19T08:56:11.242Z,4116.00
2019-02-19T08:57:11.019Z,4316.00
2019-02-19T08:58:10.999Z,4324.00
2019-02-19T08:59:10.988Z,4448.00
2019-02-19T09:00:10.995Z,4712.00
2019-02-19T09:01:11.002Z,4604.00
2019-02-19T09:02:10.968Z,4480.00
2019-02-19T09:03:10.977Z,4376.00
2019-02-19T09:04:10.973Z,4312.00
2019-02-19T09:05:10.967Z,4364.00
2019-02-19T09:06:10.986Z,4552.00
2019-02-19T09:07:10.901Z,4712.00
2019-02-19T09:08:10.898Z,4628.00
2019-02-19T09:09:10.888Z,4756.00
2019-02-19T09:10:10.884Z,4740.00
2019-02-19T09:11:10.877Z,4784.00
2019-02-19T09:12:11.565Z,4668.00
2019-02-19T09:13:10.842Z,4528.00
2019-02-19T09:14:10.840Z,4568.00
2019-02-19T09:15:11.311Z,4736.00
2019-02-19T09:16:10.845Z,4720.00
2019-02-19T09:17:10.783Z,4524.00
2019-02-19T09:18:10.776Z,4404.00
2019-02-19T09:19:10.765Z,4696.00
2019-02-19T09:20:10.836Z,5152.00
2019-02-19T09:21:10.773Z,5548.00
2019-02-19T09:22:10.736Z,5508.00
2019-02-19T09:23:10.717Z,5608.00
2019-02-19T09:24:10.743Z,5868.00
2019-02-19T09:25:10.752Z,5356.00
2019-02-19T09:26:10.709Z,5212.00
2019-02-19T09:27:10.783Z,5220.00
2019-02-19T09:28:10.677Z,5208.00
2019-02-19T09:29:10.671Z,5452.00
2019-02-19T09:30:10.648Z,5760.00
2019-02-19T09:31:10.836Z,5592.00
2019-02-19T09:32:10.619Z,5100.00
2019-02-19T09:33:10.608Z,5484.00
2019-02-19T09:34:10.596Z,5624.00
2019-02-19T09:35:10.586Z,5588.00
2019-02-19T09:36:10.606Z,5940.00
2019-02-19T09:37:10.590Z,5508.00
2019-02-19T09:38:10.590Z,6252.00
2019-02-19T09:39:10.546Z,6800.00
2019-02-19T09:40:10.560Z,6900.00
2019-02-19T09:41:10.532Z,7512.00
2019-02-19T09:42:10.534Z,5840.00
2019-02-19T09:43:10.548Z,5632.00
2019-02-19T09:44:10.486Z,5924.00
2019-02-19T09:45:10.490Z,6748.00
2019-02-19T09:46:10.470Z,6524.00
2019-02-19T09:47:10.908Z,7072.00
2019-02-19T09:48:10.446Z,8204.00
2019-02-19T09:49:10.430Z,7768.00
2019-02-19T09:50:10.422Z,6712.00
2019-02-19T09:51:10.411Z,5828.00
2019-02-19T09:52:10.421Z,6328.00
2019-02-19T09:53:10.416Z,6608.00
2019-02-19T09:54:10.397Z,6244.00
2019-02-19T09:55:10.366Z,5812.00
2019-02-19T09:56:10.521Z,6348.00
2019-02-19T09:57:10.491Z,6336.00
2019-02-19T09:58:10.331Z,6620.00
2019-02-19T09:59:10.320Z,7104.00
2019-02-19T10:00:10.312Z,7144.00
2019-02-19T10:01:10.296Z,7752.00
2019-02-19T10:02:10.311Z,8380.00
2019-02-19T10:03:10.274Z,7892.00
2019-02-19T10:04:10.263Z,8560.00
2019-02-19T10:05:10.254Z,8888.00
2019-02-19T10:06:10.243Z,9152.00
2019-02-19T10:07:10.260Z,7852.00
2019-02-19T10:08:10.247Z,8124.00
2019-02-19T10:09:10.207Z,7516.00
2019-02-19T10:10:10.475Z,7996.00
2019-02-19T10:11:10.210Z,7152.00
2019-02-19T10:12:10.203Z,6528.00
2019-02-19T10:13:10.174Z,6300.00
2019-02-19T10:14:10.175Z,6048.00
2019-02-19T10:15:10.142Z,6160.00
2019-02-19T10:16:10.133Z,6224.00
2019-02-19T10:17:10.164Z,7112.00
2019-02-19T10:18:10.662Z,5908.00
2019-02-19T10:19:10.110Z,5776.00
2019-02-19T10:20:10.087Z,5928.00
2019-02-19T10:21:10.079Z,7108.00
2019-02-19T10:22:10.108Z,7624.00
2019-02-19T10:23:10.056Z,7652.00
2019-02-19T10:24:10.048Z,7800.00
2019-02-19T10:25:10.038Z,7700.00
2019-02-19T10:26:10.030Z,6984.00
2019-02-19T10:27:10.053Z,8788.00
2019-02-19T10:28:10.014Z,8812.00
2019-02-19T10:29:09.987Z,8620.00
2019-02-19T10:30:09.985Z,7248.00
2019-02-19T10:31:09.975Z,8256.00
2019-02-19T10:32:09.965Z,8284.00
2019-02-19T10:33:09.967Z,8500.00
2019-02-19T10:34:09.943Z,7512.00
2019-02-19T10:35:09.921Z,7704.00
2019-02-19T10:36:09.910Z,8828.00
2019-02-19T10:37:09.901Z,8712.00
2019-02-19T10:38:09.909Z,8740.00
2019-02-19T10:39:09.876Z,8768.00
2019-02-19T10:40:09.865Z,9216.00
2019-02-19T10:41:09.853Z,9636.00
2019-02-19T10:42:09.842Z,9600.00
2019-02-19T10:43:09.859Z,9584.00
2019-02-19T10:44:09.822Z,9196.00
2019-02-19T10:45:09.885Z,9024.00
2019-02-19T10:46:09.814Z,8368.00
2019-02-19T10:47:09.787Z,7844.00
2019-02-19T10:48:18.603Z,7568.00
2019-02-19T10:49:10.763Z,7508.00
2019-02-19T10:50:09.751Z,7980.00
2019-02-19T10:51:09.774Z,8172.00
2019-02-19T10:52:09.729Z,7968.00
2019-02-19T10:53:09.742Z,7852.00
2019-02-19T10:54:09.708Z,7872.00
2019-02-19T10:55:09.704Z,7552.00
2019-02-19T10:56:09.686Z,7452.00
2019-02-19T10:57:09.759Z,7472.00
2019-02-19T10:58:11.506Z,7356.00
2019-02-19T10:59:09.653Z,7120.00
2019-02-19T11:00:09.641Z,7172.00
2019-02-19T11:01:09.632Z,7364.00
2019-02-19T11:02:09.617Z,7636.00
2019-02-19T11:03:09.633Z,7860.00
2019-02-19T11:04:09.598Z,7812.00
2019-02-19T11:05:09.600Z,7272.00
2019-02-19T11:06:09.575Z,6908.00
2019-02-19T11:07:09.571Z,7080.00
2019-02-19T11:08:09.605Z,6684.00
2019-02-19T11:09:09.548Z,7592.00
2019-02-19T11:10:09.527Z,7632.00
2019-02-19T11:11:09.518Z,7680.00
2019-02-19T11:12:09.507Z,7096.00
2019-02-19T11:13:09.519Z,7096.00
2019-02-19T11:14:09.484Z,6768.00
2019-02-19T11:15:09.534Z,6684.00
2019-02-19T11:16:09.476Z,6628.00
2019-02-19T11:17:09.450Z,6336.00
2019-02-19T11:18:09.467Z,6208.00
2019-02-19T11:19:09.434Z,6216.00
2019-02-19T11:20:09.421Z,6212.00
2019-02-19T11:21:09.406Z,6292.00
2019-02-19T11:22:09.403Z,6352.00
2019-02-19T11:23:09.436Z,6260.00
2019-02-19T11:24:09.370Z,6232.00
2019-02-19T11:25:09.361Z,6212.00
2019-02-19T11:26:09.677Z,6244.00
2019-02-19T11:27:09.340Z,6296.00
2019-02-19T11:28:09.328Z,6340.00
2019-02-19T11:29:09.341Z,6352.00
2019-02-19T11:30:09.308Z,6392.00
2019-02-19T11:31:10.333Z,6476.00
2019-02-19T11:32:09.338Z,6588.00
2019-02-19T11:33:09.273Z,6668.00
2019-02-19T11:34:09.318Z,6744.00
2019-02-19T11:35:09.251Z,6780.00
2019-02-19T11:36:09.244Z,6740.00
2019-02-19T11:37:09.251Z,6696.00
2019-02-19T11:38:09.238Z,6648.00
2019-02-19T11:39:09.310Z,6620.00
2019-02-19T11:40:09.229Z,6592.00
2019-02-19T11:41:09.221Z,6356.00
2019-02-19T11:42:09.183Z,6552.00
2019-02-19T11:43:09.160Z,6424.00
2019-02-19T11:44:09.173Z,6320.00
2019-02-19T11:45:09.193Z,6484.00
2019-02-19T11:46:09.129Z,6400.00
2019-02-19T11:47:09.156Z,6404.00
2019-02-19T11:48:09.126Z,6464.00
2019-02-19T11:49:09.167Z,6480.00
2019-02-19T11:50:09.130Z,6444.00
2019-02-19T11:51:09.105Z,4956.00
2019-02-19T11:52:09.078Z,4932.00
2019-02-19T11:53:09.083Z,5968.00
2019-02-19T11:54:09.101Z,6480.00
2019-02-19T11:55:09.047Z,5420.00
2019-02-19T11:56:09.035Z,6524.00
2019-02-19T11:57:09.049Z,5232.00
2019-02-19T11:58:09.032Z,6768.00
2019-02-19T11:59:09.049Z,6820.00
2019-02-19T12:00:08.986Z,6780.00
2019-02-19T12:01:08.985Z,5540.00
2019-02-19T12:02:08.954Z,6720.00
2019-02-19T12:03:08.942Z,6580.00
2019-02-19T12:04:08.952Z,6756.00
2019-02-19T12:05:08.923Z,5396.00
2019-02-19T12:06:08.906Z,5372.00
2019-02-19T12:07:08.915Z,6908.00
2019-02-19T12:08:08.889Z,6896.00
2019-02-19T12:09:08.898Z,6900.00
2019-02-19T12:10:08.862Z,6964.00
2019-02-19T12:11:08.858Z,6992.00
2019-02-19T12:12:08.855Z,7064.00
2019-02-19T12:13:08.843Z,7132.00
2019-02-19T12:14:08.995Z,7204.00
2019-02-19T12:15:08.819Z,7308.00
2019-02-19T12:16:08.807Z,7360.00
2019-02-19T12:17:08.786Z,7380.00
2019-02-19T12:18:08.775Z,7456.00
2019-02-19T12:19:08.802Z,7660.00
2019-02-19T12:20:08.755Z,7864.00
2019-02-19T12:21:10.546Z,7912.00
2019-02-19T12:22:08.731Z,7440.00
2019-02-19T12:23:08.718Z,7992.00
2019-02-19T12:24:08.708Z,6976.00
2019-02-19T12:25:08.722Z,8340.00
2019-02-19T12:26:08.685Z,8856.00
2019-02-19T12:27:08.995Z,9268.00
2019-02-19T12:28:08.666Z,9092.00
2019-02-19T12:29:08.653Z,8952.00
2019-02-19T12:30:08.668Z,8936.00
2019-02-19T12:31:08.643Z,9236.00
2019-02-19T12:32:08.619Z,9244.00
2019-02-19T12:33:08.613Z,9400.00
2019-02-19T12:34:08.605Z,9556.00
2019-02-19T12:35:08.625Z,9320.00
2019-02-19T12:36:08.576Z,9292.00
2019-02-19T12:37:09.334Z,9496.00
2019-02-19T12:38:08.554Z,9596.00
2019-02-19T12:39:08.544Z,9832.00
2019-02-19T12:40:08.558Z,9164.00
2019-02-19T12:41:08.519Z,9280.00
2019-02-19T12:42:08.522Z,9204.00
2019-02-19T12:43:08.499Z,8952.00